Terminal Aerodrome Forecast
Issued by NWS Cleveland, OH

Home | Current Version | Previous Version | Graphics & Text | Print | Product List | Glossary On
Versions: 1 2 3 4 5 6 7 8 9 10 11 12 13 14 15 16 17 18 19 20 21 22 23 24 25
000
FTUS41 KCLE 191100 RRA
TAFCLE
TAF
KCLE 191141Z 1912/2018 28006KT P6SM -SN OVC012
      TEMPO 1912/1913 4SM -FZDZ BR OVC008
     FM191400 31008KT P6SM OVC018
     FM192300 VRB03KT P6SM OVC025=

USA.gov is the U.S. government's official web portal to all federal, state and local government web resources and services.